createdAt,value
2019-02-09T00:01:03.999Z,8.01
2019-02-09T00:03:51.732Z,7.69
2019-02-09T00:06:39.465Z,7.87
2019-02-09T00:09:26.783Z,7.92
2019-02-09T00:12:14.004Z,8.06
2019-02-09T00:15:01.633Z,7.56
2019-02-09T00:17:49.265Z,7.57
2019-02-09T00:20:36.889Z,8.01
2019-02-09T00:23:24.728Z,8.28
2019-02-09T00:26:12.252Z,8.23
2019-02-09T00:28:59.585Z,7.99
2019-02-09T00:31:47.199Z,8.09
2019-02-09T00:34:34.623Z,7.81
2019-02-09T00:37:22.048Z,7.88
2019-02-09T00:40:12.404Z,7.68
2019-02-09T00:42:59.838Z,7.78
2019-02-09T00:45:47.698Z,7.74
2019-02-09T00:48:35.534Z,7.51
2019-02-09T00:51:23.161Z,7.94
2019-02-09T00:54:10.510Z,7.45
2019-02-09T00:56:58.113Z,7.81
2019-02-09T00:59:45.740Z,7.95
2019-02-09T01:02:33.063Z,7.69
2019-02-09T01:05:26.222Z,7.37
2019-02-09T01:08:13.913Z,7.40
2019-02-09T01:11:01.792Z,7.72
2019-02-09T01:13:49.115Z,7.74
2019-02-09T01:16:36.635Z,7.56
2019-02-09T01:19:24.320Z,7.56
2019-02-09T01:22:11.896Z,7.60
2019-02-09T01:24:59.214Z,7.39
2019-02-09T01:27:46.845Z,7.45
2019-02-09T01:30:34.472Z,7.37
2019-02-09T01:33:21.896Z,7.53
2019-02-09T01:36:09.116Z,7.46
2019-02-09T01:38:56.004Z,7.43
2019-02-09T01:41:43.964Z,7.65
2019-02-09T01:44:31.388Z,7.66
2019-02-09T01:47:18.502Z,7.70
2019-02-09T01:50:08.898Z,7.61
2019-02-09T01:52:56.527Z,7.72
2019-02-09T01:55:43.654Z,7.96
2019-02-09T01:58:30.967Z,7.94
2019-02-09T02:01:18.593Z,7.82
2019-02-09T02:04:05.813Z,7.59
2019-02-09T02:06:53.134Z,7.53
2019-02-09T02:09:40.872Z,7.93
2019-02-09T02:12:28.498Z,7.86
2019-02-09T02:15:17.777Z,7.74
2019-02-09T02:18:05.854Z,7.56
2019-02-09T02:20:53.432Z,7.78
2019-02-09T02:23:41.167Z,7.46
2019-02-09T02:26:28.483Z,7.52
2019-02-09T02:29:15.907Z,7.38
2019-02-09T02:32:03.278Z,7.25
2019-02-09T02:34:51.149Z,7.17
2019-02-09T02:37:38.591Z,7.51
2019-02-09T02:40:26.555Z,7.20
2019-02-09T02:43:13.953Z,6.84
2019-02-09T02:46:01.782Z,6.98
2019-02-09T02:48:49.105Z,7.01
2019-02-09T02:51:36.430Z,6.88
2019-02-09T02:54:24.161Z,6.71
2019-02-09T02:57:11.787Z,7.02
2019-02-09T02:59:59.314Z,6.93
2019-02-09T03:02:46.844Z,6.85
2019-02-09T03:05:34.577Z,6.96
2019-02-09T03:08:21.685Z,6.77
2019-02-09T03:11:09.319Z,6.72
2019-02-09T03:13:57.150Z,6.67
2019-02-09T03:16:44.168Z,6.57
2019-02-09T03:19:31.792Z,6.70
2019-02-09T03:22:18.810Z,6.71
2019-02-09T03:25:09.408Z,6.71
2019-02-09T03:27:56.727Z,6.50
2019-02-09T03:30:47.850Z,6.55
2019-02-09T03:33:32.812Z,6.68
2019-02-09T03:36:19.924Z,6.40
2019-02-09T03:39:08.021Z,6.53
2019-02-09T03:41:55.485Z,6.89
2019-02-09T03:44:42.709Z,7.00
2019-02-09T03:47:31.363Z,7.23
2019-02-09T03:50:21.240Z,7.07
2019-02-09T03:53:08.673Z,7.00
2019-02-09T03:55:56.090Z,6.77
2019-02-09T03:58:43.572Z,6.63
2019-02-09T04:01:31.455Z,6.79
2019-02-09T04:04:18.669Z,6.68
2019-02-09T04:07:06.573Z,6.54
2019-02-09T04:09:54.436Z,6.60
2019-02-09T04:12:42.170Z,6.91
2019-02-09T04:15:30.107Z,6.50
2019-02-09T04:18:17.341Z,6.38
2019-02-09T04:21:05.066Z,6.51
2019-02-09T04:23:52.380Z,6.48
2019-02-09T04:26:39.699Z,6.71
2019-02-09T04:29:27.537Z,6.85
2019-02-09T04:32:14.960Z,7.07
2019-02-09T04:35:02.805Z,6.77
2019-02-09T04:37:49.906Z,6.46
2019-02-09T04:40:37.949Z,6.57
2019-02-09T04:43:25.779Z,6.63
2019-02-09T04:46:12.998Z,6.82
2019-02-09T04:49:00.627Z,6.70
2019-02-09T04:51:48.566Z,6.83
2019-02-09T04:54:35.578Z,6.81
2019-02-09T04:57:22.899Z,6.54
2019-02-09T05:00:13.504Z,6.78
2019-02-09T05:03:01.090Z,6.62
2019-02-09T05:05:48.142Z,6.57
2019-02-09T05:08:35.668Z,6.78
2019-02-09T05:11:22.988Z,6.79
2019-02-09T05:14:10.826Z,6.93
2019-02-09T05:16:57.839Z,7.31
2019-02-09T05:19:45.675Z,7.53
2019-02-09T05:22:33.299Z,7.51
2019-02-09T05:25:21.037Z,7.42
2019-02-09T05:28:08.457Z,7.36
2019-02-09T05:30:55.778Z,7.36
2019-02-09T05:33:42.689Z,7.36
2019-02-09T05:36:29.704Z,7.61
2019-02-09T05:39:17.026Z,7.61
2019-02-09T05:42:04.346Z,7.78
2019-02-09T05:44:51.848Z,8.16
2019-02-09T05:47:39.521Z,8.02
2019-02-09T05:50:27.235Z,7.76
2019-02-09T05:53:14.969Z,7.85
2019-02-09T05:56:02.366Z,7.71
2019-02-09T05:58:49.917Z,7.72
2019-02-09T06:01:37.343Z,7.67
2019-02-09T06:04:25.006Z,7.92
2019-02-09T06:07:12.191Z,7.75
2019-02-09T06:09:59.923Z,7.91
2019-02-09T06:12:47.957Z,8.27
2019-02-09T06:15:35.185Z,8.68
2019-02-09T06:18:22.708Z,8.56
2019-02-09T06:21:10.435Z,8.07
2019-02-09T06:23:57.551Z,8.31
2019-02-09T06:26:44.976Z,8.05
2019-02-09T06:29:32.499Z,8.09
2019-02-09T06:32:20.133Z,8.29
2019-02-09T06:35:09.964Z,8.08
2019-02-09T06:37:57.441Z,8.09
2019-02-09T06:40:45.375Z,8.23
2019-02-09T06:43:32.537Z,8.22
2019-02-09T06:46:20.120Z,8.50
2019-02-09T06:49:08.059Z,8.24
2019-02-09T06:51:55.381Z,8.12
2019-02-09T06:54:43.109Z,8.45
2019-02-09T06:57:30.538Z,8.33
2019-02-09T07:00:20.377Z,8.31
2019-02-09T07:03:07.942Z,8.52
2019-02-09T07:05:55.775Z,8.26
2019-02-09T07:08:43.404Z,8.18
2019-02-09T07:11:30.741Z,8.25
2019-02-09T07:14:18.250Z,8.08
2019-02-09T07:17:05.908Z,8.13
2019-02-09T07:19:53.202Z,8.22
2019-02-09T07:22:40.629Z,8.31
2019-02-09T07:25:28.254Z,8.20
2019-02-09T07:28:15.597Z,8.03
2019-02-09T07:31:03.000Z,8.26
2019-02-09T07:33:51.453Z,8.27
2019-02-09T07:36:39.078Z,8.12
2019-02-09T07:39:26.093Z,8.16
2019-02-09T07:42:13.418Z,8.13
2019-02-09T07:45:01.146Z,8.06
2019-02-09T07:47:48.569Z,8.00
2019-02-09T07:50:35.786Z,8.19
2019-02-09T07:53:23.419Z,8.24
2019-02-09T07:56:11.049Z,8.02
2019-02-09T07:58:58.165Z,8.26
2019-02-09T08:01:45.383Z,8.61
2019-02-09T08:04:32.912Z,8.81
2019-02-09T08:07:20.640Z,8.74
2019-02-09T08:10:16.771Z,8.75
2019-02-09T08:13:06.947Z,9.05
2019-02-09T08:15:55.611Z,9.11
2019-02-09T08:18:43.137Z,8.87
2019-02-09T08:21:30.669Z,9.01
2019-02-09T08:24:18.401Z,8.60
2019-02-09T08:27:05.446Z,8.30
2019-02-09T08:29:53.042Z,8.79
2019-02-09T08:32:40.561Z,8.81
2019-02-09T08:35:28.193Z,8.80
2019-02-09T08:38:16.865Z,8.99
2019-02-09T08:41:04.171Z,8.88
2019-02-09T08:43:51.390Z,8.90
2019-02-09T08:46:38.613Z,9.05
2019-02-09T08:49:26.343Z,8.90
2019-02-09T08:52:13.417Z,8.98
2019-02-09T08:55:01.083Z,8.96
2019-02-09T08:57:48.816Z,8.97
2019-02-09T09:00:37.163Z,9.06
2019-02-09T09:03:25.098Z,9.59
2019-02-09T09:06:12.420Z,9.33
2019-02-09T09:08:59.534Z,9.72
2019-02-09T09:11:47.165Z,9.92
2019-02-09T09:14:34.998Z,9.43
2019-02-09T09:17:22.933Z,9.68
2019-02-09T09:20:13.459Z,9.86
2019-02-09T09:23:00.957Z,9.76
2019-02-09T09:25:48.583Z,9.44
2019-02-09T09:28:35.908Z,9.47
2019-02-09T09:31:24.764Z,9.63
2019-02-09T09:34:12.498Z,10.09
2019-02-09T09:36:59.925Z,10.42
2019-02-09T09:39:48.475Z,10.12
2019-02-09T09:42:36.203Z,9.91
2019-02-09T09:45:31.513Z,9.59
2019-02-09T09:48:22.295Z,9.53
2019-02-09T09:51:10.047Z,9.64
2019-02-09T09:53:57.887Z,9.75
2019-02-09T09:56:45.920Z,9.84
2019-02-09T09:59:33.138Z,9.81
2019-02-09T10:02:20.460Z,9.79
2019-02-09T10:05:09.733Z,10.27
2019-02-09T10:07:56.945Z,9.98
2019-02-09T10:10:44.269Z,9.99
2019-02-09T10:13:32.100Z,10.07
2019-02-09T10:16:20.447Z,10.37
2019-02-09T10:19:08.284Z,10.56
2019-02-09T10:21:55.608Z,10.64
2019-02-09T10:24:42.926Z,10.78
2019-02-09T10:27:30.657Z,10.87
2019-02-09T10:30:20.166Z,11.05
2019-02-09T10:33:07.859Z,10.47
2019-02-09T10:35:55.284Z,10.87
2019-02-09T10:38:42.402Z,11.09
2019-02-09T10:41:29.941Z,11.11
2019-02-09T10:44:17.503Z,11.27
2019-02-09T10:47:05.395Z,11.36
2019-02-09T10:49:52.816Z,11.32
2019-02-09T10:52:40.238Z,10.94
2019-02-09T10:55:27.768Z,10.95
2019-02-09T10:58:14.987Z,11.05
2019-02-09T11:01:05.991Z,11.43
2019-02-09T11:03:53.520Z,11.16
2019-02-09T11:06:40.638Z,11.08
2019-02-09T11:09:28.273Z,10.65
2019-02-09T11:12:16.099Z,11.06
2019-02-09T11:15:04.853Z,11.45
2019-02-09T11:17:52.850Z,11.59
2019-02-09T11:20:40.420Z,11.77
2019-02-09T11:23:28.352Z,11.54
2019-02-09T11:26:15.680Z,11.24
2019-02-09T11:29:03.306Z,11.71
2019-02-09T11:31:50.424Z,11.58
2019-02-09T11:34:38.123Z,12.19
2019-02-09T11:37:25.580Z,12.11
2019-02-09T11:40:29.913Z,12.14
2019-02-09T11:43:17.061Z,12.07
2019-02-09T11:46:05.161Z,12.05
2019-02-09T11:48:52.682Z,12.18
2019-02-09T11:51:39.901Z,11.91
2019-02-09T11:54:27.835Z,11.94
2019-02-09T11:57:15.262Z,11.84
2019-02-09T12:00:02.486Z,11.84
2019-02-09T12:02:49.837Z,11.74
2019-02-09T12:05:37.335Z,11.82
2019-02-09T12:08:24.958Z,11.69
2019-02-09T12:11:12.659Z,11.97
2019-02-09T12:14:01.727Z,12.07
2019-02-09T12:16:49.381Z,12.01
2019-02-09T12:19:36.807Z,12.04
2019-02-09T12:22:24.435Z,12.52
2019-02-09T12:25:27.217Z,12.44
2019-02-09T12:28:16.796Z,12.44
2019-02-09T12:31:04.012Z,12.78
2019-02-09T12:33:51.234Z,12.29
2019-02-09T12:36:39.067Z,11.92
2019-02-09T12:39:26.799Z,11.61
2019-02-09T12:42:14.226Z,12.22
2019-02-09T12:45:01.652Z,12.03
2019-02-09T12:47:49.956Z,11.69
2019-02-09T12:50:37.620Z,11.72
2019-02-09T12:53:25.348Z,11.62
2019-02-09T12:56:12.981Z,11.37
2019-02-09T12:59:00.815Z,11.15
2019-02-09T13:01:48.033Z,10.99
2019-02-09T13:04:35.672Z,11.34
2019-02-09T13:07:23.392Z,11.02
2019-02-09T13:10:16.103Z,11.22
2019-02-09T13:13:03.157Z,11.11
2019-02-09T13:15:50.484Z,11.38
2019-02-09T13:18:38.005Z,11.22
2019-02-09T13:21:27.587Z,11.42
2019-02-09T13:24:15.006Z,11.29
2019-02-09T13:27:02.575Z,11.22
2019-02-09T13:29:50.478Z,11.47
2019-02-09T13:32:37.996Z,11.67
2019-02-09T13:35:25.215Z,11.29
2019-02-09T13:38:12.892Z,11.27
2019-02-09T13:41:00.372Z,11.06
2019-02-09T13:43:47.591Z,10.78
2019-02-09T13:46:34.908Z,10.76
2019-02-09T13:49:22.244Z,8.95
2019-02-09T13:52:09.968Z,11.45
2019-02-09T13:54:57.639Z,10.95
2019-02-09T13:57:45.014Z,10.97
2019-02-09T14:00:33.204Z,11.52
2019-02-09T14:03:20.792Z,11.45
2019-02-09T14:06:08.599Z,11.56
2019-02-09T14:08:55.940Z,11.64
2019-02-09T14:11:42.956Z,10.99
2019-02-09T14:14:30.482Z,11.15
2019-02-09T14:17:17.908Z,11.21
2019-02-09T14:20:08.001Z,11.08
2019-02-09T14:22:55.621Z,11.22
2019-02-09T14:25:42.740Z,11.31
2019-02-09T14:28:30.575Z,11.29
2019-02-09T14:31:17.793Z,11.31
2019-02-09T14:34:06.911Z,11.42
2019-02-09T14:36:54.692Z,11.20
2019-02-09T14:39:42.320Z,10.87
2019-02-09T14:42:29.748Z,11.06
2019-02-09T14:45:40.624Z,11.14
2019-02-09T14:48:28.147Z,11.16
2019-02-09T14:51:15.979Z,10.96
2019-02-09T14:54:03.105Z,11.12
2019-02-09T14:56:51.032Z,11.40
2019-02-09T14:59:38.467Z,10.91
2019-02-09T15:02:26.287Z,10.77
2019-02-09T15:05:14.256Z,10.68
2019-02-09T15:08:02.875Z,10.81
2019-02-09T15:10:50.510Z,10.63
2019-02-09T15:13:38.442Z,10.54
2019-02-09T15:16:28.676Z,10.71
2019-02-09T15:19:15.955Z,10.48
2019-02-09T15:22:03.786Z,10.51
2019-02-09T15:24:51.521Z,10.88
2019-02-09T15:27:38.845Z,10.56
2019-02-09T15:30:29.438Z,10.86
2019-02-09T15:33:16.698Z,11.06
2019-02-09T15:36:04.706Z,11.13
2019-02-09T15:38:52.241Z,10.45
2019-02-09T15:41:39.650Z,10.53
2019-02-09T15:44:27.108Z,10.30
2019-02-09T15:47:14.914Z,10.07
2019-02-09T15:50:02.757Z,10.36
2019-02-09T15:52:50.884Z,10.32
2019-02-09T15:55:38.716Z,10.01
2019-02-09T15:58:25.943Z,10.45
2019-02-09T16:01:14.099Z,10.32
2019-02-09T16:04:01.519Z,10.27
2019-02-09T16:06:49.142Z,10.05
2019-02-09T16:09:36.876Z,10.20
2019-02-09T16:12:24.287Z,10.07
2019-02-09T16:15:16.499Z,10.26
2019-02-09T16:18:04.972Z,10.37
2019-02-09T16:20:52.290Z,9.88
2019-02-09T16:23:39.816Z,9.63
2019-02-09T16:26:27.137Z,9.66
2019-02-09T16:29:14.459Z,9.84
2019-02-09T16:32:02.105Z,9.88
2019-02-09T16:34:49.311Z,9.94
2019-02-09T16:37:36.936Z,10.18
2019-02-09T16:40:26.471Z,9.83
2019-02-09T16:43:14.256Z,9.55
2019-02-09T16:46:02.180Z,9.31
2019-02-09T16:48:49.502Z,9.58
2019-02-09T16:51:38.153Z,9.88
2019-02-09T16:54:25.987Z,9.83
2019-02-09T16:57:13.477Z,9.45
2019-02-09T17:00:00.631Z,9.04
2019-02-09T17:02:48.276Z,9.12
2019-02-09T17:05:37.120Z,9.02
2019-02-09T17:08:25.586Z,9.32
2019-02-09T17:11:12.719Z,9.51
2019-02-09T17:14:00.516Z,9.63
2019-02-09T17:16:48.555Z,10.03
2019-02-09T17:19:36.181Z,9.83
2019-02-09T17:22:23.505Z,9.64
2019-02-09T17:25:14.017Z,9.26
2019-02-09T17:28:01.426Z,9.56
2019-02-09T17:30:49.160Z,9.46
2019-02-09T17:33:36.791Z,9.45
2019-02-09T17:36:24.519Z,9.28
2019-02-09T17:39:12.678Z,8.86
2019-02-09T17:42:00.291Z,8.98
2019-02-09T17:44:48.129Z,8.87
2019-02-09T17:47:35.448Z,9.06
2019-02-09T17:50:23.275Z,9.21
2019-02-09T17:53:11.169Z,9.14
2019-02-09T17:55:59.456Z,9.36
2019-02-09T17:58:47.392Z,9.86
2019-02-09T18:01:34.920Z,9.92
2019-02-09T18:04:23.574Z,9.69
2019-02-09T18:07:11.513Z,9.35
2019-02-09T18:09:59.034Z,9.27
2019-02-09T18:12:47.071Z,9.17
2019-02-09T18:15:34.805Z,9.51
2019-02-09T18:18:22.754Z,9.57
2019-02-09T18:21:11.395Z,9.28
2019-02-09T18:23:42.748Z,9.81
2019-02-09T18:26:30.172Z,9.85
2019-02-09T18:29:17.794Z,9.71
2019-02-09T18:32:09.633Z,9.67
2019-02-09T18:34:57.047Z,9.35
2019-02-09T18:37:44.682Z,9.59
2019-02-09T18:40:31.998Z,9.32
2019-02-09T18:43:19.423Z,9.65
2019-02-09T18:46:06.945Z,9.92
2019-02-09T18:48:54.374Z,10.03
2019-02-09T18:51:41.501Z,9.99
2019-02-09T18:54:29.322Z,9.96
2019-02-09T18:57:16.856Z,9.90
2019-02-09T19:00:07.241Z,9.90
2019-02-09T19:02:54.714Z,9.40
2019-02-09T19:05:42.398Z,9.47
2019-02-09T19:08:30.151Z,9.38
2019-02-09T19:11:17.658Z,9.40
2019-02-09T19:14:05.258Z,9.51
2019-02-09T19:16:53.526Z,9.45
2019-02-09T19:19:40.848Z,9.32
2019-02-09T19:22:28.295Z,9.45
2019-02-09T19:25:18.844Z,9.54
2019-02-09T19:28:06.504Z,9.51
2019-02-09T19:30:54.210Z,9.62
2019-02-09T19:33:41.659Z,9.57
2019-02-09T19:36:29.183Z,9.07
2019-02-09T19:39:16.912Z,9.15
2019-02-09T19:42:04.445Z,9.18
2019-02-09T19:44:52.780Z,9.15
2019-02-09T19:47:40.519Z,9.38
2019-02-09T19:50:28.146Z,9.12
2019-02-09T19:53:15.782Z,9.09
2019-02-09T19:56:03.403Z,9.03
2019-02-09T19:58:50.524Z,9.38
2019-02-09T20:01:38.184Z,9.14
2019-02-09T20:04:25.369Z,9.12
2019-02-09T20:07:12.644Z,9.21
2019-02-09T20:10:00.280Z,9.16
2019-02-09T20:12:47.646Z,9.18
2019-02-09T20:15:36.192Z,9.20
2019-02-09T20:18:23.754Z,9.43
2019-02-09T20:21:12.184Z,9.51
2019-02-09T20:24:00.057Z,9.20
2019-02-09T20:26:47.551Z,9.07
2019-02-09T20:29:34.957Z,9.48
2019-02-09T20:32:22.895Z,9.22
2019-02-09T20:35:14.775Z,9.09
2019-02-09T20:38:01.965Z,9.09
2019-02-09T20:41:10.203Z,8.96
2019-02-09T20:43:58.080Z,9.18
2019-02-09T20:46:45.417Z,9.08
2019-02-09T20:49:32.928Z,9.63
2019-02-09T20:52:20.257Z,9.98
2019-02-09T20:55:10.183Z,9.93
2019-02-09T20:57:57.485Z,9.86
2019-02-09T21:00:44.779Z,9.30
2019-02-09T21:03:32.202Z,9.22
2019-02-09T21:06:19.660Z,9.60
2019-02-09T21:09:08.464Z,9.54
2019-02-09T21:11:55.501Z,9.46
2019-02-09T21:14:44.251Z,9.12
2019-02-09T21:17:31.884Z,9.23
2019-02-09T21:20:19.885Z,9.50
2019-02-09T21:23:07.706Z,9.42
2019-02-09T21:25:55.076Z,9.57
2019-02-09T21:28:42.396Z,9.19
2019-02-09T21:31:30.237Z,8.92
2019-02-09T21:34:17.356Z,8.96
2019-02-09T21:37:05.402Z,9.05
2019-02-09T21:39:53.077Z,9.12
2019-02-09T21:42:41.161Z,9.18
2019-02-09T21:45:28.835Z,9.55
2019-02-09T21:48:15.904Z,9.30
2019-02-09T21:51:03.635Z,9.26
2019-02-09T21:53:51.467Z,9.21
2019-02-09T21:56:38.491Z,9.26
2019-02-09T21:59:26.110Z,9.18
2019-02-09T22:02:14.866Z,9.05
2019-02-09T22:05:02.290Z,8.78
2019-02-09T22:07:49.825Z,8.97
2019-02-09T22:10:37.245Z,8.70
2019-02-09T22:13:24.777Z,8.65
2019-02-09T22:16:12.190Z,8.92
2019-02-09T22:18:59.731Z,8.93
2019-02-09T22:21:47.207Z,8.89
2019-02-09T22:24:34.470Z,8.43
2019-02-09T22:27:22.094Z,8.43
2019-02-09T22:30:12.505Z,8.53
2019-02-09T22:33:00.671Z,8.79
2019-02-09T22:35:48.059Z,8.83
2019-02-09T22:38:35.476Z,8.79
2019-02-09T22:41:22.903Z,8.77
2019-02-09T22:44:10.328Z,8.45
2019-02-09T22:46:57.966Z,8.59
2019-02-09T22:49:45.277Z,8.56
2019-02-09T22:52:32.624Z,8.60
2019-02-09T22:55:21.940Z,8.80
2019-02-09T22:58:09.601Z,8.79
2019-02-09T23:01:16.681Z,8.66
2019-02-09T23:04:18.957Z,8.83
2019-02-09T23:07:06.584Z,8.58
2019-02-09T23:09:54.111Z,8.45
2019-02-09T23:12:48.451Z,8.58
2019-02-09T23:15:30.495Z,8.82
2019-02-09T23:18:18.635Z,8.52
2019-02-09T23:21:06.263Z,8.30
2019-02-09T23:23:53.790Z,8.51
2019-02-09T23:26:41.111Z,8.12
2019-02-09T23:29:28.637Z,8.33
2019-02-09T23:32:16.267Z,8.44
2019-02-09T23:35:04.205Z,8.68
2019-02-09T23:37:51.836Z,8.67
2019-02-09T23:40:39.158Z,8.58
2019-02-09T23:43:26.382Z,8.63
2019-02-09T23:46:13.799Z,8.82
2019-02-09T23:49:01.633Z,8.58
2019-02-09T23:51:49.469Z,8.59
2019-02-09T23:54:36.994Z,8.56
2019-02-09T23:57:24.726Z,8.58
